Belding, MI (48887)

12:04 PM EDT on August 04, 2015 (GMT -0400)
APRSWXNET | | Change Station
CLOSE
Current Station
Personal Weather Station
Location: Belding, MI
Elevation: 859 ft
Nearby Weather Stations

Elev 859 ft 43.00 °N, 85.30 °W | Updated 28 minutes ago

Mostly Cloudy
Mostly Cloudy
76 °F
Feels Like 78 °F
N
0
Wind Variable Wind from North
Gusts 0.0 mph

Today
High -- | Low -- °F
--% Chance of Precip.
Yesterday
High -- | Low -- °F
Precip. -- in
6:34 AM 8:58 PM
Waning Gibbous, 76% visible
Pressure 29.93 in
Visibility 10.0 miles
Clouds Scattered Clouds 3900 ft
Mostly Cloudy 4700 ft
Heat Index 78 °F
Dew Point 62 °F
Humidity 62%
Rainfall in
Snow Depth Not available.
UV 5 out of 12
Pollen 7.20 out of 12
Air Quality Not available.
Flu Activity Not available.
METAR KY70 041556Z AUTO 27011KT 10SM SCT039 BKN047 25/14 A2993 RMK AO2 T02460135

More Conditions Fewer Conditions

Pressure 29.93 in
Visibility 10.0 miles
Clouds Scattered Clouds 3900 ft
Mostly Cloudy 4700 ft
Heat Index 78 °F
Dew Point 62 °F
Humidity 62%
Rainfall in
Snow Depth Not available.
UV 5 out of 12
Pollen 7.20 out of 12
Air Quality Not available.
Flu Activity Not available.
METAR KY70 041556Z AUTO 27011KT 10SM SCT039 BKN047 25/14 A2993 RMK AO2 T02460135

More Conditions Fewer Conditions

10-Day Weather Forecast

×

Almanac

Astronomy

Aug. 04, 2015 Rise Set
Actual Time
Civil Twilight
Nautical Twilight
Astronomical Twilight
Moon
Length of Visible Light
Length of Day
Tomorrow will be .
, % of the Moon is Illuminated

Today's Extremes

State Highs State Lows

Community

WunderPhotos

Upload Photos

1,843,912 photos uploaded!

WunderBlogs® & News

Nearby

Air Quality

  Air Quality AQ Index Pollutant
Not available.

Snow Depth

Station Depth Elevation

Earthquake Activity

City Distance Mag. Time & Date
Minimum magnitude displayed is 2.5.

Coastal Water Temperatures

Place Temperature

Stations

Nearby Weather Stations

Station Location Temp. Windchill Dew Point Humidity Wind Precip. Elev Updated Type